createdAt,value
2024-05-09T00:01:12.300Z,0
2024-05-09T00:02:28.511Z,6
2024-05-09T00:03:44.759Z,6
2024-05-09T00:05:01.038Z,6
2024-05-09T00:06:17.329Z,0
2024-05-09T00:07:33.593Z,0
2024-05-09T00:08:49.870Z,0
2024-05-09T00:10:06.181Z,0
2024-05-09T00:11:22.499Z,0
2024-05-09T00:12:38.760Z,0
2024-05-09T00:13:54.061Z,0
2024-05-09T00:15:10.406Z,0
2024-05-09T00:16:26.692Z,0
2024-05-09T00:17:42.900Z,5
2024-05-09T00:18:59.200Z,0
2024-05-09T00:20:15.501Z,0
2024-05-09T00:21:31.779Z,0
2024-05-09T00:22:48.077Z,0
2024-05-09T00:24:04.384Z,0
2024-05-09T00:25:20.704Z,0
2024-05-09T00:26:36.997Z,0
2024-05-09T00:27:53.257Z,0
2024-05-09T00:29:09.538Z,0
2024-05-09T00:30:24.866Z,0
2024-05-09T00:31:41.143Z,0
2024-05-09T00:32:57.442Z,0
2024-05-09T00:34:13.768Z,0
2024-05-09T00:35:30.066Z,0
2024-05-09T00:36:45.380Z,0
2024-05-09T00:38:01.671Z,0
2024-05-09T00:39:17.883Z,5
2024-05-09T00:40:34.128Z,5
2024-05-09T00:41:50.414Z,5
2024-05-09T00:43:06.600Z,5
2024-05-09T00:44:22.000Z,5
2024-05-09T00:45:39.133Z,5
2024-05-09T00:46:55.335Z,5
2024-05-09T00:48:11.609Z,5
2024-05-09T00:49:27.000Z,5
2024-05-09T00:50:44.061Z,5
2024-05-09T00:52:00.328Z,5
2024-05-09T00:53:15.606Z,0
2024-05-09T00:54:31.936Z,0
2024-05-09T00:55:48.188Z,0
2024-05-09T00:57:04.476Z,0
2024-05-09T00:58:20.773Z,0
2024-05-09T00:59:37.062Z,0
2024-05-09T01:00:53.403Z,0
2024-05-09T01:02:09.657Z,0
2024-05-09T01:03:25.989Z,0
2024-05-09T01:04:42.284Z,0
2024-05-09T01:05:58.530Z,0
2024-05-09T01:07:14.880Z,0
2024-05-09T01:08:31.126Z,0
2024-05-09T01:09:47.414Z,0
2024-05-09T01:11:02.761Z,0
2024-05-09T01:12:18.966Z,6
2024-05-09T01:13:35.200Z,6
2024-05-09T01:14:51.500Z,0
2024-05-09T01:16:07.792Z,0
2024-05-09T01:17:24.122Z,0
2024-05-09T01:18:40.427Z,0
2024-05-09T01:19:56.709Z,0
2024-05-09T01:21:12.965Z,0
2024-05-09T01:22:29.253Z,0
2024-05-09T01:23:45.597Z,0
2024-05-09T01:25:01.897Z,0
2024-05-09T01:26:18.176Z,0
2024-05-09T01:27:33.402Z,6
2024-05-09T01:28:49.657Z,6
2024-05-09T01:30:05.886Z,6
2024-05-09T01:31:22.150Z,6
2024-05-09T01:32:38.382Z,6
2024-05-09T01:33:54.676Z,0
2024-05-09T01:35:11.009Z,0
2024-05-09T01:36:27.262Z,0
2024-05-09T01:37:43.596Z,0
2024-05-09T01:38:59.835Z,6
2024-05-09T01:40:16.032Z,6
2024-05-09T01:41:32.329Z,6
2024-05-09T01:42:48.564Z,6
2024-05-09T01:44:03.819Z,6
2024-05-09T01:45:20.068Z,6
2024-05-09T01:46:36.317Z,0
2024-05-09T01:47:52.616Z,0
2024-05-09T01:49:08.899Z,6
2024-05-09T01:50:25.153Z,6
2024-05-09T01:51:41.391Z,0
2024-05-09T01:52:57.726Z,0
2024-05-09T01:54:14.030Z,0
2024-05-09T01:55:30.279Z,0
2024-05-09T01:56:46.610Z,0
2024-05-09T01:58:02.904Z,0
2024-05-09T01:59:19.191Z,0
2024-05-09T02:00:34.503Z,0
2024-05-09T02:01:50.754Z,0
2024-05-09T02:03:07.050Z,0
2024-05-09T02:04:23.341Z,0
2024-05-09T02:05:39.628Z,0
2024-05-09T02:06:55.926Z,0
2024-05-09T02:08:12.216Z,0
2024-05-09T02:09:28.557Z,0
2024-05-09T02:10:44.865Z,0
2024-05-09T02:12:01.100Z,0
2024-05-09T02:13:17.452Z,0
2024-05-09T02:14:33.690Z,0
2024-05-09T02:15:50.000Z,0
2024-05-09T02:17:05.340Z,0
2024-05-09T02:18:21.587Z,0
2024-05-09T02:19:37.928Z,0
2024-05-09T02:20:54.215Z,0
2024-05-09T02:22:10.515Z,0
2024-05-09T02:23:26.753Z,0
2024-05-09T02:24:43.051Z,0
2024-05-09T02:25:59.390Z,0
2024-05-09T02:27:15.633Z,0
2024-05-09T02:28:31.985Z,0
2024-05-09T02:29:48.229Z,0
2024-05-09T02:31:04.518Z,0
2024-05-09T02:32:20.856Z,0
2024-05-09T02:33:36.117Z,0
2024-05-09T02:34:52.419Z,0
2024-05-09T02:36:08.699Z,0
2024-05-09T02:37:25.002Z,0
2024-05-09T02:38:41.333Z,0
2024-05-09T02:39:57.580Z,0
2024-05-09T02:41:13.931Z,0
2024-05-09T02:42:30.186Z,0
2024-05-09T02:43:46.461Z,0
2024-05-09T02:45:02.764Z,0
2024-05-09T02:46:19.097Z,0
2024-05-09T02:47:35.353Z,0
2024-05-09T02:48:51.644Z,0
2024-05-09T02:50:06.948Z,0
2024-05-09T02:51:23.286Z,0
2024-05-09T02:52:39.579Z,0
2024-05-09T02:53:55.883Z,0
2024-05-09T02:55:12.175Z,0
2024-05-09T02:56:28.411Z,0
2024-05-09T02:57:44.756Z,0
2024-05-09T02:59:00.995Z,0
2024-05-09T03:00:17.299Z,0
2024-05-09T03:01:33.534Z,5
2024-05-09T03:02:49.827Z,5
2024-05-09T03:04:06.061Z,5
2024-05-09T03:05:22.262Z,5
2024-05-09T03:06:38.653Z,5
2024-05-09T03:07:54.856Z,6
2024-05-09T03:09:11.101Z,6
2024-05-09T03:10:27.371Z,5
2024-05-09T03:11:43.620Z,6
2024-05-09T03:12:59.804Z,6
2024-05-09T03:14:16.105Z,6
2024-05-09T03:15:32.294Z,7
2024-05-09T03:16:48.585Z,14
2024-05-09T03:18:04.764Z,2
2024-05-09T03:19:21.019Z,1
2024-05-09T03:20:37.294Z,2
2024-05-09T03:21:53.483Z,2
2024-05-09T03:23:08.737Z,3
2024-05-09T03:24:24.974Z,6
2024-05-09T03:25:41.265Z,6
2024-05-09T03:26:57.454Z,5
2024-05-09T03:28:13.698Z,6
2024-05-09T03:29:29.983Z,9
2024-05-09T03:30:46.217Z,9
2024-05-09T03:32:02.426Z,13
2024-05-09T03:33:18.696Z,10
2024-05-09T03:34:34.886Z,14
2024-05-09T03:35:51.182Z,19
2024-05-09T03:37:07.417Z,17
2024-05-09T03:38:23.663Z,20
2024-05-09T03:39:38.870Z,20
2024-05-09T03:40:55.103Z,22
2024-05-09T03:42:11.347Z,23
2024-05-09T03:43:27.625Z,22
2024-05-09T03:44:43.829Z,30
2024-05-09T03:46:00.071Z,34
2024-05-09T03:47:16.297Z,40
2024-05-09T03:48:32.595Z,46
2024-05-09T03:49:48.777Z,43
2024-05-09T03:51:05.066Z,44
2024-05-09T03:52:21.302Z,48
2024-05-09T03:53:37.507Z,48
2024-05-09T03:54:53.735Z,53
2024-05-09T03:56:08.991Z,54
2024-05-09T03:57:25.233Z,61
2024-05-09T03:58:41.475Z,65
2024-05-09T03:59:57.000Z,73
2024-05-09T04:01:13.958Z,73
2024-05-09T04:02:30.236Z,79
2024-05-09T04:03:46.432Z,86
2024-05-09T04:05:02.718Z,92
2024-05-09T04:06:18.955Z,100
2024-05-09T04:07:35.190Z,106
2024-05-09T04:08:51.383Z,117
2024-05-09T04:10:07.677Z,120
2024-05-09T04:11:23.915Z,127
2024-05-09T04:12:39.171Z,137
2024-05-09T04:13:55.412Z,145
2024-05-09T04:15:11.000Z,149
2024-05-09T04:16:27.881Z,164
2024-05-09T04:17:44.133Z,169
2024-05-09T04:19:00.310Z,176
2024-05-09T04:20:16.605Z,178
2024-05-09T04:21:32.842Z,183
2024-05-09T04:22:49.078Z,191
2024-05-09T04:24:05.279Z,197
2024-05-09T04:25:21.564Z,203
2024-05-09T04:26:37.748Z,215
2024-05-09T04:27:54.041Z,224
2024-05-09T04:29:09.304Z,227
2024-05-09T04:30:25.536Z,231
2024-05-09T04:31:41.733Z,233
2024-05-09T04:32:57.967Z,244
2024-05-09T04:34:14.209Z,242
2024-05-09T04:35:30.444Z,253
2024-05-09T04:36:46.684Z,258
2024-05-09T04:38:02.976Z,266
2024-05-09T04:39:19.209Z,246
2024-05-09T04:40:35.401Z,281
2024-05-09T04:41:51.687Z,300
2024-05-09T04:43:07.925Z,292
2024-05-09T04:44:24.173Z,240
2024-05-09T04:45:39.368Z,286
2024-05-09T04:46:55.610Z,295
2024-05-09T04:48:11.847Z,306
2024-05-09T04:49:28.087Z,314
2024-05-09T04:50:44.379Z,322
2024-05-09T04:51:59.636Z,326
2024-05-09T04:53:15.895Z,327
2024-05-09T04:54:32.000Z,335
2024-05-09T04:55:48.313Z,338
2024-05-09T04:57:04.599Z,339
2024-05-09T04:58:20.779Z,344
2024-05-09T04:59:37.081Z,349
2024-05-09T05:00:53.319Z,356
2024-05-09T05:02:09.515Z,354
2024-05-09T05:03:25.792Z,357
2024-05-09T05:04:42.039Z,356
2024-05-09T05:05:58.219Z,358
2024-05-09T05:07:14.463Z,361
2024-05-09T05:08:30.834Z,361
2024-05-09T05:09:47.053Z,366
2024-05-09T05:11:03.301Z,373
2024-05-09T05:12:19.585Z,375
2024-05-09T05:13:35.780Z,375
2024-05-09T05:14:52.069Z,361
2024-05-09T05:16:08.319Z,370
2024-05-09T05:17:24.501Z,370
2024-05-09T05:18:40.783Z,375
2024-05-09T05:19:57.000Z,436
2024-05-09T05:21:13.220Z,401
2024-05-09T05:22:29.507Z,456
2024-05-09T05:23:45.687Z,388
2024-05-09T05:25:00.945Z,388
2024-05-09T05:26:17.239Z,387
2024-05-09T05:27:33.424Z,386
2024-05-09T05:28:49.661Z,386
2024-05-09T05:30:05.903Z,383
2024-05-09T05:31:22.190Z,385
2024-05-09T05:32:38.380Z,319
2024-05-09T05:33:54.626Z,458
2024-05-09T05:35:10.906Z,397
2024-05-09T05:36:27.149Z,393
2024-05-09T05:37:43.335Z,393
2024-05-09T05:38:59.625Z,394
2024-05-09T05:40:15.867Z,380
2024-05-09T05:41:32.189Z,401
2024-05-09T05:42:48.413Z,408
2024-05-09T05:44:04.709Z,412
2024-05-09T05:45:20.890Z,417
2024-05-09T05:46:37.135Z,427
2024-05-09T05:47:53.369Z,418
2024-05-09T05:49:09.616Z,401
2024-05-09T05:50:25.912Z,393
2024-05-09T05:51:42.089Z,449
2024-05-09T05:52:58.397Z,404
2024-05-09T05:54:14.583Z,441
2024-05-09T05:55:30.856Z,325
2024-05-09T05:56:47.096Z,576
2024-05-09T05:58:02.356Z,452
2024-05-09T05:59:18.596Z,453
2024-05-09T06:00:34.781Z,458
2024-05-09T06:01:51.086Z,497
2024-05-09T06:03:07.269Z,322
2024-05-09T06:04:23.558Z,693
2024-05-09T06:05:39.795Z,550
2024-05-09T06:06:55.975Z,561
2024-05-09T06:08:12.273Z,558
2024-05-09T06:09:28.517Z,560
2024-05-09T06:10:44.689Z,546
2024-05-09T06:12:00.987Z,556
2024-05-09T06:13:17.237Z,542
2024-05-09T06:14:32.480Z,471
2024-05-09T06:15:48.666Z,586
2024-05-09T06:17:04.000Z,408
2024-05-09T06:18:21.201Z,721
2024-05-09T06:19:37.401Z,542
2024-05-09T06:20:53.620Z,412
2024-05-09T06:22:09.865Z,709
2024-05-09T06:23:26.105Z,539
2024-05-09T06:24:42.400Z,568
2024-05-09T06:25:58.580Z,591
2024-05-09T06:27:14.819Z,493
2024-05-09T06:28:31.112Z,500
2024-05-09T06:29:47.300Z,497
2024-05-09T06:31:02.561Z,512
2024-05-09T06:32:18.851Z,520
2024-05-09T06:33:35.031Z,516
2024-05-09T06:34:51.330Z,653
2024-05-09T06:36:07.509Z,481
2024-05-09T06:37:23.819Z,683
2024-05-09T06:38:40.052Z,526
2024-05-09T06:39:56.287Z,406
2024-05-09T06:41:12.474Z,570
2024-05-09T06:42:28.712Z,534
2024-05-09T06:43:45.004Z,570
2024-05-09T06:45:01.253Z,514
2024-05-09T06:46:17.486Z,510
2024-05-09T06:47:32.743Z,582
2024-05-09T06:48:48.989Z,423
2024-05-09T06:50:05.225Z,520
2024-05-09T06:51:21.461Z,521
2024-05-09T06:52:37.645Z,455
2024-05-09T06:53:53.888Z,511
2024-05-09T06:55:10.125Z,521
2024-05-09T06:56:26.373Z,512
2024-05-09T06:57:42.000Z,532
2024-05-09T06:58:58.841Z,523
2024-05-09T07:00:15.137Z,520
2024-05-09T07:01:31.327Z,518
2024-05-09T07:02:47.624Z,524
2024-05-09T07:04:02.833Z,527
2024-05-09T07:05:19.117Z,523
2024-05-09T07:06:35.314Z,532
2024-05-09T07:07:51.537Z,523
2024-05-09T07:09:07.839Z,530
2024-05-09T07:10:24.082Z,540
2024-05-09T07:11:40.272Z,526
2024-05-09T07:12:56.508Z,529
2024-05-09T07:14:12.801Z,555
2024-05-09T07:15:28.974Z,492
2024-05-09T07:16:45.271Z,528
2024-05-09T07:18:01.461Z,526
2024-05-09T07:19:17.750Z,536
2024-05-09T07:20:34.115Z,535
2024-05-09T07:21:50.350Z,532
2024-05-09T07:23:06.547Z,540
2024-05-09T07:24:22.778Z,543
2024-05-09T07:25:39.089Z,549
2024-05-09T07:26:55.268Z,548
2024-05-09T07:28:11.492Z,551
2024-05-09T07:29:27.737Z,550
2024-05-09T07:30:43.976Z,554
2024-05-09T07:32:00.272Z,553
2024-05-09T07:33:16.527Z,554
2024-05-09T07:34:32.000Z,558
2024-05-09T07:35:49.009Z,559
2024-05-09T07:37:04.186Z,563
2024-05-09T07:38:20.489Z,569
2024-05-09T07:39:36.681Z,576
2024-05-09T07:40:52.964Z,567
2024-05-09T07:42:09.163Z,588
2024-05-09T07:43:25.445Z,556
2024-05-09T07:44:41.624Z,590
2024-05-09T07:45:57.929Z,557
2024-05-09T07:47:14.173Z,573
2024-05-09T07:48:30.346Z,577
2024-05-09T07:49:46.595Z,578
2024-05-09T07:51:02.825Z,584
2024-05-09T07:52:19.069Z,604
2024-05-09T07:53:34.379Z,584
2024-05-09T07:54:50.620Z,591
2024-05-09T07:56:06.867Z,593
2024-05-09T07:57:23.046Z,588
2024-05-09T07:58:39.338Z,589
2024-05-09T07:59:55.580Z,596
2024-05-09T08:01:11.827Z,585
2024-05-09T08:02:27.998Z,600
2024-05-09T08:03:44.303Z,596
2024-05-09T08:05:00.539Z,599
2024-05-09T08:06:16.726Z,609
2024-05-09T08:07:33.019Z,600
2024-05-09T08:08:49.193Z,606
2024-05-09T08:10:04.507Z,608
2024-05-09T08:11:20.749Z,629
2024-05-09T08:12:36.938Z,596
2024-05-09T08:13:53.240Z,598
2024-05-09T08:15:09.483Z,616
2024-05-09T08:16:25.720Z,615
2024-05-09T08:17:41.885Z,619
2024-05-09T08:18:58.196Z,634
2024-05-09T08:20:14.427Z,605
2024-05-09T08:21:30.609Z,622
2024-05-09T08:22:46.846Z,627
2024-05-09T08:24:03.139Z,625
2024-05-09T08:25:19.378Z,633
2024-05-09T08:26:34.638Z,628
2024-05-09T08:27:50.874Z,634
2024-05-09T08:29:07.057Z,639
2024-05-09T08:30:23.299Z,629
2024-05-09T08:31:39.590Z,643
2024-05-09T08:32:55.827Z,647
2024-05-09T08:34:12.006Z,647
2024-05-09T08:35:28.304Z,652
2024-05-09T08:36:44.500Z,654
2024-05-09T08:38:00.802Z,654
2024-05-09T08:39:16.971Z,658
2024-05-09T08:40:33.215Z,660
2024-05-09T08:41:49.441Z,664
2024-05-09T08:43:04.712Z,663
2024-05-09T08:44:20.947Z,668
2024-05-09T08:45:37.236Z,670
2024-05-09T08:46:53.419Z,682
2024-05-09T08:48:09.714Z,680
2024-05-09T08:49:25.892Z,685
2024-05-09T08:50:42.137Z,700
2024-05-09T08:51:58.382Z,685
2024-05-09T08:53:14.669Z,686
2024-05-09T08:54:30.914Z,698
2024-05-09T08:55:47.151Z,708
2024-05-09T08:57:03.319Z,717
2024-05-09T08:58:19.559Z,723
2024-05-09T08:59:34.874Z,726
2024-05-09T09:00:51.056Z,731
2024-05-09T09:02:07.309Z,734
2024-05-09T09:03:23.538Z,738
2024-05-09T09:04:39.781Z,745
2024-05-09T09:05:56.016Z,751
2024-05-09T09:07:11.277Z,756
2024-05-09T09:08:27.576Z,756
2024-05-09T09:09:43.749Z,770
2024-05-09T09:10:59.986Z,785
2024-05-09T09:12:16.217Z,802
2024-05-09T09:13:32.454Z,820
2024-05-09T09:14:48.710Z,833
2024-05-09T09:16:05.001Z,833
2024-05-09T09:17:21.000Z,829
2024-05-09T09:18:37.415Z,841
2024-05-09T09:19:53.650Z,834
2024-05-09T09:21:09.903Z,848
2024-05-09T09:22:26.133Z,874
2024-05-09T09:23:41.376Z,917
2024-05-09T09:24:57.619Z,967
2024-05-09T09:26:13.855Z,963
2024-05-09T09:27:30.095Z,965
2024-05-09T09:28:46.397Z,955
2024-05-09T09:30:02.000Z,963
2024-05-09T09:31:18.808Z,1014
2024-05-09T09:32:35.111Z,1016
2024-05-09T09:33:51.359Z,1328
2024-05-09T09:35:07.525Z,1402
2024-05-09T09:36:23.764Z,490
2024-05-09T09:37:40.000Z,1111
2024-05-09T09:38:56.310Z,1091
2024-05-09T09:40:11.493Z,1083
2024-05-09T09:41:27.740Z,1667
2024-05-09T09:42:44.038Z,1179
2024-05-09T09:44:00.217Z,1253
2024-05-09T09:45:16.513Z,1127
2024-05-09T09:46:32.698Z,1113
2024-05-09T09:47:48.990Z,1179
2024-05-09T09:49:05.233Z,1169
2024-05-09T09:50:21.411Z,1054
2024-05-09T09:51:37.652Z,1138
2024-05-09T09:52:53.888Z,1082
2024-05-09T09:54:10.115Z,1136
2024-05-09T09:55:26.419Z,1100
2024-05-09T09:56:41.679Z,1062
2024-05-09T09:57:57.849Z,1112
2024-05-09T09:59:14.099Z,1169
2024-05-09T10:00:30.324Z,1127
2024-05-09T10:01:46.577Z,1042
2024-05-09T10:03:02.802Z,1005
2024-05-09T10:04:19.036Z,959
2024-05-09T10:05:35.355Z,410
2024-05-09T10:06:51.533Z,1151
2024-05-09T10:08:07.820Z,1146
2024-05-09T10:09:24.067Z,1310
2024-05-09T10:10:40.229Z,1094
2024-05-09T10:11:56.548Z,1253
2024-05-09T10:13:12.900Z,1285
2024-05-09T10:14:29.078Z,1311
2024-05-09T10:15:45.372Z,1364
2024-05-09T10:17:01.616Z,1413
2024-05-09T10:18:17.787Z,1451
2024-05-09T10:19:34.104Z,1360
2024-05-09T10:20:50.267Z,1669
2024-05-09T10:22:06.501Z,2147
2024-05-09T10:23:22.738Z,2593
2024-05-09T10:24:38.984Z,2895
2024-05-09T10:25:55.288Z,3005
2024-05-09T10:27:11.459Z,3062
2024-05-09T10:28:27.756Z,3056
2024-05-09T10:29:42.964Z,3093
2024-05-09T10:30:59.196Z,3045
2024-05-09T10:32:15.500Z,2994
2024-05-09T10:33:31.728Z,3061
2024-05-09T10:34:47.971Z,2770
2024-05-09T10:36:04.215Z,3151
2024-05-09T10:37:20.382Z,3169
2024-05-09T10:38:36.684Z,3154
2024-05-09T10:39:52.869Z,3305
2024-05-09T10:41:09.171Z,4473
2024-05-09T10:42:25.413Z,1975
2024-05-09T10:43:41.642Z,1418
2024-05-09T10:44:57.818Z,768
2024-05-09T10:46:13.140Z,3233
2024-05-09T10:47:29.372Z,3106
2024-05-09T10:48:45.556Z,3557
2024-05-09T10:50:01.797Z,3498
2024-05-09T10:51:18.090Z,4855
2024-05-09T10:52:34.274Z,1817
2024-05-09T10:53:50.504Z,1774
2024-05-09T10:55:06.738Z,2181
2024-05-09T10:56:23.050Z,990
2024-05-09T10:57:39.218Z,3694
2024-05-09T10:58:55.471Z,4865
2024-05-09T11:00:11.705Z,746
2024-05-09T11:01:27.937Z,1113
2024-05-09T11:02:43.189Z,3563
2024-05-09T11:03:59.430Z,3573
2024-05-09T11:05:15.746Z,3551
2024-05-09T11:06:31.905Z,3677
2024-05-09T11:07:48.217Z,3791
2024-05-09T11:09:04.389Z,3780
2024-05-09T11:10:20.693Z,3731
2024-05-09T11:11:36.870Z,3779
2024-05-09T11:12:53.100Z,3684
2024-05-09T11:14:09.421Z,3788
2024-05-09T11:15:25.586Z,3945
2024-05-09T11:16:41.888Z,3819
2024-05-09T11:17:58.132Z,3783
2024-05-09T11:19:14.492Z,3962
2024-05-09T11:20:30.676Z,3973
2024-05-09T11:21:46.975Z,4057
2024-05-09T11:23:03.144Z,4030
2024-05-09T11:24:19.392Z,4166
2024-05-09T11:25:35.628Z,4072
2024-05-09T11:26:51.860Z,4058
2024-05-09T11:28:08.100Z,3932
2024-05-09T11:29:24.416Z,4117
2024-05-09T11:30:40.591Z,4232
2024-05-09T11:31:56.832Z,3963
2024-05-09T11:33:13.066Z,4246
2024-05-09T11:34:29.387Z,4351
2024-05-09T11:35:44.565Z,4360
2024-05-09T11:37:00.792Z,4415
2024-05-09T11:38:17.035Z,4405
2024-05-09T11:39:33.353Z,4456
2024-05-09T11:40:49.586Z,4557
2024-05-09T11:42:05.827Z,4696
2024-05-09T11:43:22.067Z,4541
2024-05-09T11:44:38.314Z,4707
2024-05-09T11:45:54.547Z,4738
2024-05-09T11:47:10.798Z,6431
2024-05-09T11:48:26.966Z,1145
2024-05-09T11:49:43.195Z,7099
2024-05-09T11:50:59.439Z,2259
2024-05-09T11:52:15.806Z,6794
2024-05-09T11:53:32.049Z,1431
2024-05-09T11:54:48.274Z,7223
2024-05-09T11:56:04.530Z,1721
2024-05-09T11:57:20.760Z,5420
2024-05-09T11:58:36.996Z,5840
2024-05-09T11:59:53.246Z,4342
2024-05-09T12:01:09.491Z,7644
2024-05-09T12:02:25.724Z,1988
2024-05-09T12:03:41.956Z,5996
2024-05-09T12:04:58.272Z,869
2024-05-09T12:06:14.440Z,4258
2024-05-09T12:07:30.765Z,2035
2024-05-09T12:08:46.017Z,2181
2024-05-09T12:10:02.177Z,1921
2024-05-09T12:11:18.429Z,1803
2024-05-09T12:12:34.733Z,1885
2024-05-09T12:13:50.891Z,1692
2024-05-09T12:15:07.000Z,1601
2024-05-09T12:16:23.390Z,1422
2024-05-09T12:17:39.693Z,878
2024-05-09T12:18:55.851Z,2438
2024-05-09T12:20:12.165Z,5546
2024-05-09T12:21:28.412Z,1784
2024-05-09T12:22:44.571Z,4720
2024-05-09T12:24:00.823Z,4810
2024-05-09T12:25:17.173Z,5145
2024-05-09T12:26:33.486Z,5178
2024-05-09T12:27:49.000Z,5173
2024-05-09T12:29:05.971Z,5264
2024-05-09T12:30:22.145Z,5354
2024-05-09T12:31:38.417Z,6509
2024-05-09T12:32:54.648Z,2320
2024-05-09T12:34:10.887Z,1971
2024-05-09T12:35:27.117Z,889
2024-05-09T12:36:43.340Z,5481
2024-05-09T12:37:59.587Z,2874
2024-05-09T12:39:15.832Z,1226
2024-05-09T12:40:32.000Z,1091
2024-05-09T12:41:47.310Z,5952
2024-05-09T12:43:03.574Z,1348
2024-05-09T12:44:19.795Z,5362
2024-05-09T12:45:36.030Z,5576
2024-05-09T12:46:52.281Z,5656
2024-05-09T12:48:08.539Z,5473
2024-05-09T12:49:24.779Z,2973
2024-05-09T12:50:40.995Z,6845
2024-05-09T12:51:57.260Z,2959
2024-05-09T12:53:13.494Z,5720
2024-05-09T12:54:29.709Z,5406
2024-05-09T12:55:45.949Z,5158
2024-05-09T12:57:02.189Z,5045
2024-05-09T12:58:17.475Z,5625
2024-05-09T12:59:33.695Z,5314
2024-05-09T13:00:49.961Z,5585
2024-05-09T13:02:06.174Z,5444
2024-05-09T13:03:22.413Z,7562
2024-05-09T13:04:38.649Z,2258
2024-05-09T13:05:54.911Z,6145
2024-05-09T13:07:11.131Z,6302
2024-05-09T13:08:27.394Z,2083
2024-05-09T13:09:43.607Z,2267
2024-05-09T13:10:59.842Z,2126
2024-05-09T13:12:16.086Z,1375
2024-05-09T13:13:32.336Z,3408
2024-05-09T13:14:47.594Z,1020
2024-05-09T13:16:03.823Z,6735
2024-05-09T13:17:20.069Z,1113
2024-05-09T13:18:36.000Z,5765
2024-05-09T13:19:52.584Z,6210
2024-05-09T13:21:08.792Z,915
2024-05-09T13:22:25.162Z,2951
2024-05-09T13:23:41.415Z,990
2024-05-09T13:24:57.630Z,4961
2024-05-09T13:26:13.866Z,8027
2024-05-09T13:27:30.144Z,4547
2024-05-09T13:28:46.362Z,1450
2024-05-09T13:30:02.586Z,5292
2024-05-09T13:31:18.868Z,5318
2024-05-09T13:32:35.074Z,5357
2024-05-09T13:33:51.319Z,5419
2024-05-09T13:35:07.546Z,5428
2024-05-09T13:36:23.822Z,5437
2024-05-09T13:37:40.046Z,5387
2024-05-09T13:38:56.389Z,5461
2024-05-09T13:40:12.641Z,6581
2024-05-09T13:41:28.874Z,4038
2024-05-09T13:42:45.114Z,5147
2024-05-09T13:44:01.346Z,5376
2024-05-09T13:45:17.604Z,5405
2024-05-09T13:46:33.826Z,5370
2024-05-09T13:47:50.084Z,5467
2024-05-09T13:49:06.316Z,5343
2024-05-09T13:50:22.554Z,5091
2024-05-09T13:51:38.789Z,5333
2024-05-09T13:52:55.061Z,5395
2024-05-09T13:54:11.288Z,5308
2024-05-09T13:55:26.532Z,5426
2024-05-09T13:56:42.804Z,6294
2024-05-09T13:57:59.032Z,5646
2024-05-09T13:59:15.253Z,3122
2024-05-09T14:00:31.484Z,5949
2024-05-09T14:01:47.722Z,4561
2024-05-09T14:03:03.959Z,6862
2024-05-09T14:04:20.206Z,3557
2024-05-09T14:05:36.435Z,6226
2024-05-09T14:06:52.714Z,2009
2024-05-09T14:08:08.924Z,906
2024-05-09T14:09:25.161Z,7301
2024-05-09T14:10:41.411Z,1375
2024-05-09T14:11:57.801Z,5907
2024-05-09T14:13:14.005Z,5313
2024-05-09T14:14:30.268Z,5114
2024-05-09T14:15:46.477Z,5564
2024-05-09T14:17:02.745Z,5580
2024-05-09T14:18:18.967Z,5705
2024-05-09T14:19:35.222Z,5477
2024-05-09T14:20:51.476Z,5666
2024-05-09T14:22:07.687Z,5627
2024-05-09T14:23:23.916Z,5671
2024-05-09T14:24:40.162Z,5624
2024-05-09T14:25:56.419Z,5576
2024-05-09T14:27:12.666Z,5626
2024-05-09T14:28:27.898Z,5487
2024-05-09T14:29:44.165Z,5675
2024-05-09T14:31:00.364Z,5488
2024-05-09T14:32:16.647Z,5531
2024-05-09T14:33:32.878Z,5027
2024-05-09T14:34:49.083Z,5362
2024-05-09T14:36:05.354Z,5456
2024-05-09T14:37:21.560Z,5574
2024-05-09T14:38:37.807Z,5424
2024-05-09T14:39:54.040Z,5495
2024-05-09T14:41:10.286Z,5527
2024-05-09T14:42:26.510Z,5587
2024-05-09T14:43:42.754Z,5591
2024-05-09T14:44:58.003Z,5622
2024-05-09T14:46:14.284Z,5561
2024-05-09T14:47:30.533Z,5747
2024-05-09T14:48:46.721Z,5610
2024-05-09T14:50:02.998Z,5767
2024-05-09T14:51:19.217Z,5987
2024-05-09T14:52:35.473Z,5773
2024-05-09T14:53:51.727Z,5991
2024-05-09T14:55:07.952Z,5979
2024-05-09T14:56:24.153Z,6093
2024-05-09T14:57:40.399Z,5771
2024-05-09T14:58:56.684Z,6015
2024-05-09T15:00:12.905Z,6152
2024-05-09T15:01:28.166Z,5905
2024-05-09T15:02:44.403Z,6278
2024-05-09T15:04:00.636Z,6354
2024-05-09T15:05:16.887Z,6367
2024-05-09T15:06:33.118Z,6397
2024-05-09T15:07:49.350Z,6401
2024-05-09T15:09:05.597Z,6562
2024-05-09T15:10:21.827Z,9429
2024-05-09T15:11:38.071Z,1919
2024-05-09T15:12:54.323Z,7948
2024-05-09T15:14:10.537Z,2978
2024-05-09T15:15:26.776Z,5925
2024-05-09T15:16:43.025Z,6065
2024-05-09T15:17:59.264Z,6183
2024-05-09T15:19:14.521Z,6168
2024-05-09T15:20:30.764Z,5968
2024-05-09T15:21:46.998Z,5894
2024-05-09T15:23:03.238Z,5971
2024-05-09T15:24:19.466Z,6036
2024-05-09T15:25:35.703Z,6062
2024-05-09T15:26:51.948Z,6086
2024-05-09T15:28:08.185Z,5639
2024-05-09T15:29:24.427Z,6028
2024-05-09T15:30:40.000Z,5970
2024-05-09T15:31:56.913Z,6043
2024-05-09T15:33:13.135Z,6011
2024-05-09T15:34:29.376Z,5427
2024-05-09T15:35:44.641Z,5819
2024-05-09T15:37:00.884Z,6179
2024-05-09T15:38:17.121Z,6036
2024-05-09T15:39:33.357Z,5826
2024-05-09T15:40:49.586Z,6145
2024-05-09T15:42:05.832Z,5470
2024-05-09T15:43:22.065Z,6122
2024-05-09T15:44:38.310Z,5681
2024-05-09T15:45:54.555Z,6279
2024-05-09T15:47:10.785Z,5667
2024-05-09T15:48:27.031Z,5588
2024-05-09T15:49:43.262Z,5843
2024-05-09T15:50:59.494Z,8157
2024-05-09T15:52:14.763Z,4199
2024-05-09T15:53:31.005Z,2521
2024-05-09T15:54:47.235Z,5211
2024-05-09T15:56:03.466Z,5606
2024-05-09T15:57:19.720Z,5686
2024-05-09T15:58:35.958Z,6037
2024-05-09T15:59:52.193Z,5846
2024-05-09T16:01:08.437Z,5910
2024-05-09T16:02:24.660Z,5567
2024-05-09T16:03:40.911Z,5879
2024-05-09T16:04:57.148Z,5842
2024-05-09T16:06:13.382Z,5532
2024-05-09T16:07:29.628Z,5555
2024-05-09T16:08:44.878Z,5905
2024-05-09T16:10:01.125Z,5731
2024-05-09T16:11:17.356Z,6279
2024-05-09T16:12:33.598Z,5505
2024-05-09T16:13:49.838Z,5661
2024-05-09T16:15:06.076Z,5471
2024-05-09T16:16:22.304Z,5071
2024-05-09T16:17:38.554Z,4827
2024-05-09T16:18:54.783Z,5555
2024-05-09T16:20:11.018Z,7814
2024-05-09T16:21:27.247Z,1457
2024-05-09T16:22:43.499Z,5122
2024-05-09T16:23:59.000Z,5676
2024-05-09T16:25:14.986Z,5855
2024-05-09T16:26:31.226Z,1203
2024-05-09T16:27:47.457Z,991
2024-05-09T16:29:03.723Z,4341
2024-05-09T16:30:19.946Z,4292
2024-05-09T16:31:36.182Z,4418
2024-05-09T16:32:52.421Z,4215
2024-05-09T16:34:08.674Z,4271
2024-05-09T16:35:24.914Z,4581
2024-05-09T16:36:41.141Z,3557
2024-05-09T16:37:57.392Z,4925
2024-05-09T16:39:13.620Z,3710
2024-05-09T16:40:29.000Z,3809
2024-05-09T16:41:45.125Z,4454
2024-05-09T16:43:01.343Z,4625
2024-05-09T16:44:17.604Z,4446
2024-05-09T16:45:33.821Z,4370
2024-05-09T16:46:50.072Z,4771
2024-05-09T16:48:06.304Z,3879
2024-05-09T16:49:22.548Z,3390
2024-05-09T16:50:38.783Z,3658
2024-05-09T16:51:55.016Z,4078
2024-05-09T16:53:11.250Z,3622
2024-05-09T16:54:27.487Z,3653
2024-05-09T16:55:43.728Z,3804
2024-05-09T16:56:59.980Z,3504
2024-05-09T16:58:15.232Z,4003
2024-05-09T16:59:31.464Z,3922
2024-05-09T17:00:47.695Z,3245
2024-05-09T17:02:03.951Z,2669
2024-05-09T17:03:20.185Z,3059
2024-05-09T17:04:36.415Z,4195
2024-05-09T17:05:52.648Z,2804
2024-05-09T17:07:08.897Z,2227
2024-05-09T17:08:25.151Z,2289
2024-05-09T17:09:41.369Z,1917
2024-05-09T17:10:57.614Z,1773
2024-05-09T17:12:13.842Z,1963
2024-05-09T17:13:30.091Z,1317
2024-05-09T17:14:45.351Z,1571
2024-05-09T17:16:01.583Z,1571
2024-05-09T17:17:17.827Z,1028
2024-05-09T17:18:34.071Z,1149
2024-05-09T17:19:50.304Z,1152
2024-05-09T17:21:06.549Z,1238
2024-05-09T17:22:22.787Z,1319
2024-05-09T17:23:39.010Z,1161
2024-05-09T17:24:55.260Z,1029
2024-05-09T17:26:11.495Z,927
2024-05-09T17:27:27.733Z,751
2024-05-09T17:28:43.964Z,684